createdAt,value
2018-10-11T00:01:19.948Z,56.09
2018-10-11T00:03:47.251Z,55.69
2018-10-11T00:06:14.589Z,55.72
2018-10-11T00:08:41.917Z,56.11
2018-10-11T00:11:09.483Z,55.55
2018-10-11T00:13:36.779Z,55.01
2018-10-11T00:16:04.066Z,55.35
2018-10-11T00:18:31.370Z,55.73
2018-10-11T00:20:58.630Z,55.27
2018-10-11T00:23:25.960Z,54.49
2018-10-11T00:25:53.258Z,54.92
2018-10-11T00:28:20.559Z,54.56
2018-10-11T00:30:47.917Z,53.94
2018-10-11T00:33:15.201Z,54.34
2018-10-11T00:35:42.504Z,54.86
2018-10-11T00:38:09.803Z,55.54
2018-10-11T00:40:37.126Z,55.14
2018-10-11T00:43:04.434Z,55.80
2018-10-11T00:45:31.710Z,54.71
2018-10-11T00:47:58.973Z,54.61
2018-10-11T00:50:26.303Z,54.91
2018-10-11T00:52:53.626Z,54.31
2018-10-11T00:55:21.037Z,53.92
2018-10-11T00:57:48.374Z,54.27
2018-10-11T01:00:15.754Z,54.35
2018-10-11T01:02:43.068Z,55.10
2018-10-11T01:05:10.421Z,54.92
2018-10-11T01:07:37.829Z,54.65
2018-10-11T01:10:05.286Z,54.23
2018-10-11T01:12:32.506Z,54.44
2018-10-11T01:14:59.801Z,54.62
2018-10-11T01:17:27.035Z,54.43
2018-10-11T01:19:54.330Z,54.22
2018-10-11T01:22:21.633Z,53.33
2018-10-11T01:24:48.980Z,53.38
2018-10-11T01:27:16.233Z,53.19
2018-10-11T01:29:43.579Z,53.67
2018-10-11T01:32:10.847Z,53.29
2018-10-11T01:34:38.088Z,53.96
2018-10-11T01:37:05.414Z,54.05
2018-10-11T01:39:32.736Z,53.99
2018-10-11T01:42:00.124Z,54.39
2018-10-11T01:44:27.439Z,54.19
2018-10-11T01:46:54.740Z,54.71
2018-10-11T01:49:21.979Z,53.96
2018-10-11T01:51:49.256Z,53.94
2018-10-11T01:54:16.528Z,54.75
2018-10-11T01:56:43.894Z,56.23
2018-10-11T01:59:11.200Z,54.94
2018-10-11T02:01:38.431Z,55.50
2018-10-11T02:04:05.746Z,55.81
2018-10-11T02:06:37.312Z,55.31
2018-10-11T02:09:05.425Z,54.78
2018-10-11T02:11:32.713Z,54.77
2018-10-11T02:14:00.000Z,55.38
2018-10-11T02:16:27.272Z,55.65
2018-10-11T02:18:54.554Z,55.80
2018-10-11T02:21:21.887Z,55.58
2018-10-11T02:23:49.286Z,55.94
2018-10-11T02:26:18.696Z,55.70
2018-10-11T02:28:45.988Z,55.91
2018-10-11T02:31:13.273Z,55.31
2018-10-11T02:33:40.576Z,56.06
2018-10-11T02:36:07.815Z,55.53
2018-10-11T02:38:35.129Z,55.44
2018-10-11T02:41:02.404Z,55.94
2018-10-11T02:43:29.643Z,56.69
2018-10-11T02:45:56.913Z,56.24
2018-10-11T02:48:24.161Z,56.53
2018-10-11T02:50:51.449Z,55.65
2018-10-11T02:53:18.728Z,56.00
2018-10-11T02:55:46.003Z,55.73
2018-10-11T02:58:24.769Z,55.92
2018-10-11T03:00:52.114Z,55.43
2018-10-11T03:03:21.474Z,56.02
2018-10-11T03:05:48.768Z,55.34
2018-10-11T03:08:17.836Z,57.88
2018-10-11T03:10:45.712Z,57.08
2018-10-11T03:13:13.626Z,55.99
2018-10-11T03:15:41.708Z,55.60
2018-10-11T03:18:09.721Z,56.21
2018-10-11T03:20:37.060Z,56.13
2018-10-11T03:23:04.302Z,56.46
2018-10-11T03:25:31.611Z,56.05
2018-10-11T03:27:58.885Z,56.67
2018-10-11T03:30:26.145Z,56.97
2018-10-11T03:32:53.354Z,57.21
2018-10-11T03:35:20.683Z,56.36
2018-10-11T03:37:48.026Z,56.73
2018-10-11T03:40:15.302Z,56.03
2018-10-11T03:42:42.801Z,56.06
2018-10-11T03:45:10.266Z,56.63
2018-10-11T03:47:37.551Z,55.63
2018-10-11T03:50:04.809Z,56.13
2018-10-11T03:52:32.235Z,56.03
2018-10-11T03:54:59.558Z,55.83
2018-10-11T03:57:26.822Z,55.63
2018-10-11T03:59:54.377Z,55.27
2018-10-11T04:02:21.698Z,55.96
2018-10-11T04:04:49.109Z,54.75
2018-10-11T04:07:16.439Z,54.57
2018-10-11T04:09:44.452Z,54.79
2018-10-11T04:12:11.869Z,55.31
2018-10-11T04:14:39.573Z,54.83
2018-10-11T04:17:07.658Z,55.82
2018-10-11T04:19:34.945Z,55.35
2018-10-11T04:22:02.439Z,55.77
2018-10-11T04:24:29.893Z,56.15
2018-10-11T04:26:57.295Z,55.37
2018-10-11T04:29:25.239Z,55.72
2018-10-11T04:31:52.509Z,55.69
2018-10-11T04:34:19.777Z,55.81
2018-10-11T04:36:47.159Z,54.88
2018-10-11T04:39:14.469Z,56.13
2018-10-11T04:41:42.093Z,56.29
2018-10-11T04:44:09.775Z,56.47
2018-10-11T04:46:37.100Z,55.54
2018-10-11T04:49:04.467Z,56.23
2018-10-11T04:51:31.723Z,55.73
2018-10-11T04:53:59.077Z,55.86
2018-10-11T04:56:27.957Z,55.59
2018-10-11T04:58:56.132Z,56.04
2018-10-11T05:01:23.373Z,55.45
2018-10-11T05:03:50.680Z,56.11
2018-10-11T05:06:18.185Z,55.61
2018-10-11T05:08:45.627Z,55.69
2018-10-11T05:11:12.935Z,55.44
2018-10-11T05:13:44.791Z,55.96
2018-10-11T05:16:12.905Z,56.14
2018-10-11T05:18:41.968Z,55.30
2018-10-11T05:21:09.322Z,55.72
2018-10-11T05:23:36.830Z,55.99
2018-10-11T05:26:04.255Z,56.03
2018-10-11T05:28:31.496Z,55.98
2018-10-11T05:30:58.834Z,55.63
2018-10-11T05:33:26.250Z,56.14
2018-10-11T05:35:53.993Z,56.27
2018-10-11T05:38:21.415Z,56.59
2018-10-11T05:40:48.566Z,56.38
2018-10-11T05:43:15.890Z,57.00
2018-10-11T05:45:47.557Z,57.20
2018-10-11T05:48:14.902Z,56.40
2018-10-11T05:50:42.181Z,56.80
2018-10-11T05:53:09.505Z,56.88
2018-10-11T05:55:36.810Z,56.88
2018-10-11T05:58:04.181Z,56.52
2018-10-11T06:00:31.487Z,57.51
2018-10-11T06:03:00.997Z,57.40
2018-10-11T06:05:29.106Z,57.56
2018-10-11T06:07:56.662Z,57.32
2018-10-11T06:10:24.739Z,56.63
2018-10-11T06:12:52.267Z,56.55
2018-10-11T06:15:19.569Z,56.92
2018-10-11T06:17:46.890Z,56.83
2018-10-11T06:20:14.191Z,57.74
2018-10-11T06:22:41.776Z,56.86
2018-10-11T06:25:09.730Z,57.44
2018-10-11T06:27:37.066Z,57.18
2018-10-11T06:30:04.501Z,56.45
2018-10-11T06:32:31.843Z,56.91
2018-10-11T06:34:59.131Z,57.26
2018-10-11T06:37:26.934Z,56.31
2018-10-11T06:39:54.806Z,56.75
2018-10-11T06:42:22.261Z,57.75
2018-10-11T06:44:49.532Z,57.26
2018-10-11T06:47:18.006Z,56.56
2018-10-11T06:49:45.728Z,56.71
2018-10-11T06:52:12.979Z,56.46
2018-10-11T06:54:40.516Z,57.89
2018-10-11T06:57:07.861Z,56.82
2018-10-11T06:59:35.134Z,56.21
2018-10-11T07:02:02.515Z,56.90
2018-10-11T07:04:29.808Z,55.97
2018-10-11T07:06:57.093Z,56.28
2018-10-11T07:09:24.436Z,57.26
2018-10-11T07:11:51.775Z,56.21
2018-10-11T07:14:19.077Z,56.41
2018-10-11T07:16:46.388Z,56.60
2018-10-11T07:19:13.748Z,56.88
2018-10-11T07:21:41.150Z,56.64
2018-10-11T07:24:08.601Z,57.24
2018-10-11T07:26:35.937Z,56.94
2018-10-11T07:29:03.206Z,57.06
2018-10-11T07:31:30.507Z,56.48
2018-10-11T07:33:57.799Z,56.47
2018-10-11T07:36:25.121Z,56.78
2018-10-11T07:38:52.354Z,56.99
2018-10-11T07:41:19.722Z,56.03
2018-10-11T07:43:47.039Z,57.00
2018-10-11T07:46:14.332Z,55.89
2018-10-11T07:48:41.726Z,56.67
2018-10-11T07:51:09.000Z,55.89
2018-10-11T07:53:36.394Z,54.96
2018-10-11T07:56:03.675Z,55.27
2018-10-11T07:58:30.958Z,55.47
2018-10-11T08:00:58.318Z,55.20
2018-10-11T08:03:25.655Z,55.07
2018-10-11T08:05:52.908Z,55.19
2018-10-11T08:08:20.273Z,55.37
2018-10-11T08:10:47.705Z,55.33
2018-10-11T08:13:14.877Z,54.37
2018-10-11T08:15:42.209Z,54.48
2018-10-11T08:18:09.458Z,55.09
2018-10-11T08:20:37.771Z,54.44
2018-10-11T08:23:05.011Z,54.32
2018-10-11T08:25:32.551Z,53.22
2018-10-11T08:27:59.673Z,53.02
2018-10-11T08:30:27.005Z,53.20
2018-10-11T08:32:54.330Z,52.81
2018-10-11T08:35:21.615Z,51.53
2018-10-11T08:37:49.037Z,51.25
2018-10-11T08:40:16.261Z,51.89
2018-10-11T08:42:43.703Z,53.27
2018-10-11T08:45:11.012Z,52.67
2018-10-11T08:47:38.301Z,51.85
2018-10-11T08:50:05.766Z,51.40
2018-10-11T08:52:33.073Z,53.16
2018-10-11T08:55:00.496Z,51.65
2018-10-11T08:57:27.944Z,51.49
2018-10-11T08:59:55.218Z,50.93
2018-10-11T09:02:22.586Z,51.36
2018-10-11T09:04:49.873Z,50.58
2018-10-11T09:07:17.174Z,50.62
2018-10-11T09:09:45.092Z,49.91
2018-10-11T09:12:12.708Z,49.92
2018-10-11T09:14:39.996Z,48.62
2018-10-11T09:17:07.566Z,47.17
2018-10-11T09:19:34.906Z,48.00
2018-10-11T09:22:02.242Z,47.38
2018-10-11T09:24:29.614Z,46.98
2018-10-11T09:26:57.026Z,47.30
2018-10-11T09:29:24.302Z,46.30
2018-10-11T09:31:51.547Z,47.09
2018-10-11T09:34:18.861Z,46.60
2018-10-11T09:36:46.237Z,46.61
2018-10-11T09:39:13.637Z,46.28
2018-10-11T09:41:40.946Z,45.81
2018-10-11T09:44:08.791Z,47.20
2018-10-11T09:46:36.030Z,46.56
2018-10-11T09:49:03.583Z,45.53
2018-10-11T09:51:30.949Z,45.83
2018-10-11T09:53:58.199Z,44.53
2018-10-11T09:57:34.475Z,44.34
2018-10-11T10:00:03.124Z,44.11
2018-10-11T10:02:30.813Z,44.05
2018-10-11T10:04:59.347Z,43.83
2018-10-11T10:07:26.729Z,43.95
2018-10-11T10:09:54.062Z,45.39
2018-10-11T10:12:21.491Z,45.48
2018-10-11T10:14:49.337Z,46.18
2018-10-11T10:17:16.604Z,44.17
2018-10-11T10:19:44.475Z,44.57
2018-10-11T10:22:11.810Z,44.94
2018-10-11T10:24:39.580Z,44.71
2018-10-11T10:27:06.571Z,45.07
2018-10-11T10:29:34.245Z,44.16
2018-10-11T10:32:02.049Z,42.69
2018-10-11T10:34:29.289Z,43.03
2018-10-11T10:36:56.593Z,44.27
2018-10-11T10:39:24.143Z,44.57
2018-10-11T10:41:51.463Z,42.71
2018-10-11T10:44:18.745Z,42.60
2018-10-11T10:46:46.145Z,41.90
2018-10-11T10:49:13.482Z,41.07
2018-10-11T10:51:40.868Z,40.92
2018-10-11T10:54:13.843Z,40.53
2018-10-11T10:56:41.144Z,38.66
2018-10-11T10:59:08.457Z,39.29
2018-10-11T11:01:35.722Z,38.32
2018-10-11T11:04:03.040Z,37.93
2018-10-11T11:06:30.296Z,38.61
2018-10-11T11:08:57.696Z,36.23
2018-10-11T11:11:24.998Z,36.56
2018-10-11T11:13:52.575Z,36.36
2018-10-11T11:16:19.921Z,36.61
2018-10-11T11:18:47.232Z,35.60
2018-10-11T11:21:14.547Z,36.95
2018-10-11T11:23:41.878Z,36.55
2018-10-11T11:26:09.287Z,36.63
2018-10-11T11:28:36.637Z,36.74
2018-10-11T11:31:03.962Z,36.48
2018-10-11T11:33:31.297Z,36.27
2018-10-11T11:35:58.777Z,36.68
2018-10-11T11:38:26.084Z,35.89
2018-10-11T11:40:53.414Z,34.21
2018-10-11T11:43:20.755Z,33.31
2018-10-11T11:45:48.079Z,34.47
2018-10-11T11:48:15.340Z,34.59
2018-10-11T11:50:42.705Z,31.82
2018-10-11T11:53:09.987Z,31.03
2018-10-11T11:55:37.275Z,30.94
2018-10-11T11:58:04.692Z,33.09
2018-10-11T12:00:31.936Z,32.04
2018-10-11T12:03:00.259Z,30.87
2018-10-11T12:05:27.724Z,31.64
2018-10-11T12:07:55.019Z,32.31
2018-10-11T12:10:22.416Z,31.27
2018-10-11T12:12:57.824Z,30.63
2018-10-11T12:15:26.278Z,30.61
2018-10-11T12:17:55.668Z,29.39
2018-10-11T12:20:24.847Z,30.14
2018-10-11T12:22:52.755Z,27.98
2018-10-11T12:25:20.007Z,28.55
2018-10-11T12:27:47.427Z,28.26
2018-10-11T12:30:14.717Z,27.76
2018-10-11T12:32:42.318Z,28.65
2018-10-11T12:35:09.677Z,29.13
2018-10-11T12:37:37.017Z,28.84
2018-10-11T12:40:04.512Z,28.77
2018-10-11T12:42:31.879Z,28.27
2018-10-11T12:44:59.086Z,27.21
2018-10-11T12:47:26.391Z,27.81
2018-10-11T12:49:53.835Z,27.27
2018-10-11T12:52:21.419Z,28.93
2018-10-11T12:54:48.778Z,28.16
2018-10-11T12:57:19.658Z,26.61
2018-10-11T12:59:43.497Z,26.51
2018-10-11T13:02:10.821Z,28.40
2018-10-11T13:04:38.327Z,27.55
2018-10-11T13:07:05.715Z,26.83
2018-10-11T13:09:33.467Z,27.65
2018-10-11T13:12:00.961Z,28.13
2018-10-11T13:14:28.238Z,27.48
2018-10-11T13:16:55.455Z,26.71
2018-10-11T13:19:22.778Z,27.55
2018-10-11T13:21:50.135Z,27.10
2018-10-11T13:24:17.425Z,27.89
2018-10-11T13:26:45.139Z,27.59
2018-10-11T13:29:12.461Z,28.15
2018-10-11T13:31:39.751Z,28.80
2018-10-11T13:34:07.285Z,29.15
2018-10-11T13:36:34.581Z,28.23
2018-10-11T13:39:03.228Z,29.03
2018-10-11T13:41:30.613Z,29.76
2018-10-11T13:43:57.814Z,29.21
2018-10-11T13:46:25.097Z,27.84
2018-10-11T13:48:52.500Z,28.03
2018-10-11T13:51:19.884Z,26.88
2018-10-11T13:53:51.287Z,27.69
2018-10-11T13:56:14.425Z,26.90
2018-10-11T13:58:41.662Z,26.88
2018-10-11T14:01:09.022Z,27.17
2018-10-11T14:03:36.312Z,26.55
2018-10-11T14:06:03.569Z,27.12
2018-10-11T14:08:30.878Z,28.64
2018-10-11T14:10:58.208Z,29.12
2018-10-11T14:13:25.484Z,28.28
2018-10-11T14:15:52.914Z,29.54
2018-10-11T14:18:20.213Z,29.25
2018-10-11T14:20:47.550Z,28.60
2018-10-11T14:23:14.807Z,28.72
2018-10-11T14:25:42.086Z,27.85
2018-10-11T14:28:09.367Z,28.21
2018-10-11T14:30:36.732Z,28.10
2018-10-11T14:33:03.965Z,28.58
2018-10-11T14:35:31.286Z,28.05
2018-10-11T14:37:58.532Z,30.12
2018-10-11T14:40:25.847Z,29.64
2018-10-11T14:42:53.120Z,29.57
2018-10-11T14:45:20.457Z,29.61
2018-10-11T14:47:47.745Z,29.33
2018-10-11T14:50:15.078Z,28.51
2018-10-11T14:52:42.357Z,29.62
2018-10-11T14:55:09.686Z,28.58
2018-10-11T14:57:36.967Z,28.95
2018-10-11T15:00:04.728Z,29.24
2018-10-11T15:02:32.175Z,29.82
2018-10-11T15:04:59.473Z,29.81
2018-10-11T15:07:26.773Z,29.61
2018-10-11T15:09:54.053Z,30.80
2018-10-11T15:12:21.535Z,30.97
2018-10-11T15:14:48.831Z,30.97
2018-10-11T15:17:16.169Z,32.31
2018-10-11T15:19:43.395Z,32.65
2018-10-11T15:22:10.695Z,31.26
2018-10-11T15:24:37.988Z,31.32
2018-10-11T15:27:05.320Z,33.08
2018-10-11T15:29:32.701Z,33.10
2018-10-11T15:31:59.916Z,32.16
2018-10-11T15:34:27.189Z,31.72
2018-10-11T15:36:54.525Z,32.33
2018-10-11T15:39:21.980Z,32.86
2018-10-11T15:41:49.245Z,32.33
2018-10-11T15:44:16.584Z,32.24
2018-10-11T15:46:43.950Z,33.07
2018-10-11T15:49:11.281Z,33.12
2018-10-11T15:51:38.627Z,34.57
2018-10-11T15:54:06.289Z,32.86
2018-10-11T15:56:33.568Z,34.16
2018-10-11T15:59:00.968Z,34.19
2018-10-11T16:01:28.267Z,33.92
2018-10-11T16:03:55.560Z,34.70
2018-10-11T16:06:22.817Z,34.97
2018-10-11T16:08:50.700Z,33.77
2018-10-11T16:11:18.034Z,34.16
2018-10-11T16:13:45.319Z,34.75
2018-10-11T16:16:12.816Z,35.35
2018-10-11T16:18:40.088Z,35.00
2018-10-11T16:21:07.832Z,35.25
2018-10-11T16:23:35.075Z,35.80
2018-10-11T16:26:02.363Z,34.99
2018-10-11T16:28:29.640Z,35.75
2018-10-11T16:30:56.947Z,35.71
2018-10-11T16:33:24.247Z,36.16
2018-10-11T16:35:51.499Z,37.03
2018-10-11T16:38:18.809Z,36.08
2018-10-11T16:40:46.089Z,36.81
2018-10-11T16:43:13.371Z,37.19
2018-10-11T16:45:40.647Z,36.92
2018-10-11T16:48:08.065Z,35.83
2018-10-11T16:50:35.434Z,36.64
2018-10-11T16:53:02.832Z,36.37
2018-10-11T16:55:30.260Z,37.85
2018-10-11T16:57:57.651Z,37.66
2018-10-11T17:00:25.265Z,37.41
2018-10-11T17:02:52.627Z,36.88
2018-10-11T17:05:19.924Z,38.07
2018-10-11T17:07:47.241Z,37.72
2018-10-11T17:10:14.496Z,38.46
2018-10-11T17:12:41.774Z,38.45
2018-10-11T17:15:09.052Z,37.40
2018-10-11T17:17:36.322Z,38.13
2018-10-11T17:20:03.678Z,38.10
2018-10-11T17:22:30.966Z,37.89
2018-10-11T17:24:58.288Z,37.46
2018-10-11T17:27:25.545Z,38.53
2018-10-11T17:29:52.893Z,37.72
2018-10-11T17:32:20.198Z,37.49
2018-10-11T17:34:47.545Z,36.52
2018-10-11T17:37:14.850Z,37.34
2018-10-11T17:39:42.127Z,36.76
2018-10-11T17:42:09.524Z,37.55
2018-10-11T17:44:36.897Z,37.35
2018-10-11T17:47:04.120Z,37.42
2018-10-11T17:49:31.438Z,37.89
2018-10-11T17:51:58.703Z,37.14
2018-10-11T17:54:26.043Z,37.79
2018-10-11T17:56:53.331Z,37.05
2018-10-11T17:59:21.269Z,37.42
2018-10-11T18:01:48.711Z,37.83
2018-10-11T18:04:16.023Z,38.26
2018-10-11T18:06:43.337Z,38.89
2018-10-11T18:09:11.305Z,39.22
2018-10-11T18:11:38.607Z,39.80
2018-10-11T18:14:06.921Z,41.07
2018-10-11T18:16:34.199Z,41.40
2018-10-11T18:19:01.552Z,41.66
2018-10-11T18:21:28.893Z,41.82
2018-10-11T18:23:56.115Z,41.15
2018-10-11T18:26:23.410Z,41.48
2018-10-11T18:28:50.723Z,42.20
2018-10-11T18:31:18.080Z,42.32
2018-10-11T18:33:45.338Z,43.53
2018-10-11T18:36:12.648Z,43.42
2018-10-11T18:38:39.941Z,43.92
2018-10-11T18:41:07.236Z,43.04
2018-10-11T18:43:34.528Z,43.28
2018-10-11T18:46:01.859Z,43.84
2018-10-11T18:48:29.131Z,44.68
2018-10-11T18:50:56.496Z,44.64
2018-10-11T18:53:23.846Z,44.24
2018-10-11T18:55:51.246Z,44.55
2018-10-11T18:58:18.492Z,45.29
2018-10-11T19:00:45.942Z,44.92
2018-10-11T19:03:13.261Z,44.21
2018-10-11T19:05:40.665Z,44.67
2018-10-11T19:08:08.032Z,44.75
2018-10-11T19:10:35.321Z,45.07
2018-10-11T19:13:02.601Z,45.72
2018-10-11T19:15:29.905Z,46.05
2018-10-11T19:17:57.221Z,45.34
2018-10-11T19:20:24.597Z,46.02
2018-10-11T19:22:51.942Z,46.75
2018-10-11T19:25:19.299Z,45.93
2018-10-11T19:27:46.705Z,46.91
2018-10-11T19:30:13.993Z,46.53
2018-10-11T19:32:41.331Z,46.65
2018-10-11T19:35:08.696Z,47.32
2018-10-11T19:37:36.053Z,46.76
2018-10-11T19:40:03.498Z,47.28
2018-10-11T19:42:30.784Z,47.60
2018-10-11T19:44:58.153Z,47.60
2018-10-11T19:47:25.478Z,47.97
2018-10-11T19:49:52.835Z,47.37
2018-10-11T19:52:20.155Z,47.45
2018-10-11T19:54:47.770Z,48.30
2018-10-11T19:57:15.170Z,47.78
2018-10-11T19:59:42.461Z,47.53
2018-10-11T20:02:09.762Z,47.87
2018-10-11T20:04:37.056Z,47.06
2018-10-11T20:07:04.349Z,47.76
2018-10-11T20:09:31.664Z,47.27
2018-10-11T20:11:58.914Z,47.60
2018-10-11T20:14:26.331Z,48.48
2018-10-11T20:16:53.658Z,47.75
2018-10-11T20:19:21.046Z,47.82
2018-10-11T20:21:48.359Z,47.02
2018-10-11T20:24:16.777Z,47.38
2018-10-11T20:26:44.054Z,46.89
2018-10-11T20:29:11.640Z,47.30
2018-10-11T20:31:38.960Z,47.46
2018-10-11T20:34:06.851Z,46.71
2018-10-11T20:36:34.132Z,47.04
2018-10-11T20:39:02.105Z,46.87
2018-10-11T20:41:29.467Z,46.84
2018-10-11T20:43:56.951Z,46.78
2018-10-11T20:46:24.185Z,47.45
2018-10-11T20:48:51.589Z,47.64
2018-10-11T20:51:18.946Z,47.59
2018-10-11T20:53:46.281Z,47.86
2018-10-11T20:56:13.709Z,47.41
2018-10-11T20:58:41.550Z,48.55
2018-10-11T21:01:08.952Z,48.14
2018-10-11T21:03:36.218Z,47.93
2018-10-11T21:06:03.916Z,48.01
2018-10-11T21:08:31.191Z,48.72
2018-10-11T21:10:58.616Z,48.17
2018-10-11T21:13:26.083Z,47.48
2018-10-11T21:15:53.325Z,47.90
2018-10-11T21:18:20.727Z,48.04
2018-10-11T21:20:48.188Z,47.97
2018-10-11T21:23:15.474Z,47.44
2018-10-11T21:25:42.859Z,47.62
2018-10-11T21:28:10.152Z,47.45
2018-10-11T21:30:37.553Z,47.39
2018-10-11T21:33:04.816Z,47.74
2018-10-11T21:35:32.094Z,47.06
2018-10-11T21:37:59.600Z,48.04
2018-10-11T21:40:27.069Z,47.19
2018-10-11T21:42:54.448Z,47.57
2018-10-11T21:45:22.393Z,47.41
2018-10-11T21:47:50.458Z,47.48
2018-10-11T21:50:18.031Z,48.06
2018-10-11T21:52:45.448Z,47.85
2018-10-11T21:55:12.659Z,48.39
2018-10-11T21:57:39.992Z,47.77
2018-10-11T22:00:07.362Z,49.01
2018-10-11T22:02:34.670Z,48.60
2018-10-11T22:05:01.917Z,48.33
2018-10-11T22:07:29.151Z,47.55
2018-10-11T22:09:56.517Z,47.91
2018-10-11T22:12:24.300Z,48.63
2018-10-11T22:14:51.820Z,48.56
2018-10-11T22:17:19.099Z,47.88
2018-10-11T22:19:46.389Z,48.14
2018-10-11T22:22:13.627Z,48.99
2018-10-11T22:24:40.923Z,48.50
2018-10-11T22:27:08.183Z,48.84
2018-10-11T22:29:36.099Z,49.15
2018-10-11T22:32:04.566Z,49.49
2018-10-11T22:34:31.893Z,49.11
2018-10-11T22:36:59.740Z,49.63
2018-10-11T22:39:27.005Z,49.11
2018-10-11T22:41:54.339Z,49.95
2018-10-11T22:44:21.612Z,49.93
2018-10-11T22:46:48.946Z,50.50
2018-10-11T22:49:16.179Z,51.43
2018-10-11T22:51:44.008Z,51.19
2018-10-11T22:54:11.591Z,52.59
2018-10-11T22:56:38.944Z,51.66
2018-10-11T22:59:06.258Z,50.84
2018-10-11T23:01:33.547Z,51.12
2018-10-11T23:04:00.835Z,51.08
2018-10-11T23:06:28.872Z,50.17
2018-10-11T23:08:56.793Z,49.47
2018-10-11T23:11:24.460Z,50.77
2018-10-11T23:13:51.754Z,50.80
2018-10-11T23:16:19.123Z,50.14
2018-10-11T23:18:46.440Z,50.15
2018-10-11T23:21:13.737Z,50.41
2018-10-11T23:23:42.325Z,49.71
2018-10-11T23:26:09.630Z,50.34
2018-10-11T23:28:37.001Z,49.95
2018-10-11T23:31:04.318Z,50.10
2018-10-11T23:33:31.569Z,50.48
2018-10-11T23:35:58.957Z,50.12
2018-10-11T23:38:26.274Z,50.50
2018-10-11T23:40:53.546Z,50.49
2018-10-11T23:43:21.330Z,50.96
2018-10-11T23:45:48.750Z,50.19
2018-10-11T23:48:16.202Z,51.17
2018-10-11T23:50:43.526Z,51.04
2018-10-11T23:53:10.802Z,51.00
2018-10-11T23:55:38.101Z,50.92
2018-10-11T23:58:05.427Z,51.11
